createdAt,value
2023-04-17T00:00:52.951Z,95.67
2023-04-17T00:05:56.799Z,95.48
2023-04-17T00:11:07.062Z,94.78
2023-04-17T00:16:13.913Z,94.47
2023-04-17T00:21:15.786Z,95.03
2023-04-17T00:26:17.497Z,95.78
2023-04-17T00:31:19.496Z,96.52
2023-04-17T00:36:21.390Z,94.98
2023-04-17T00:41:23.257Z,96.66
2023-04-17T00:46:28.015Z,97.58
2023-04-17T00:51:29.767Z,98.16
2023-04-17T00:56:31.906Z,97.33
2023-04-17T01:01:33.759Z,97.67
2023-04-17T01:06:36.539Z,98.00
2023-04-17T01:11:39.337Z,96.54
2023-04-17T01:16:42.177Z,96.14
2023-04-17T01:21:46.168Z,95.40
2023-04-17T01:26:47.940Z,95.32
2023-04-17T01:31:50.419Z,96.19
2023-04-17T01:36:52.166Z,96.60
2023-04-17T01:41:54.365Z,97.15
2023-04-17T01:46:56.669Z,96.49
2023-04-17T01:51:58.268Z,97.00
2023-04-17T01:57:01.318Z,97.58
2023-04-17T02:02:03.112Z,96.95
2023-04-17T02:07:04.946Z,97.91
2023-04-17T02:12:07.987Z,97.88
2023-04-17T02:17:09.626Z,97.86
2023-04-17T02:22:11.213Z,97.45
2023-04-17T02:27:12.945Z,98.61
2023-04-17T02:32:18.383Z,98.98
2023-04-17T02:37:24.226Z,99.99
2023-04-17T02:42:27.461Z,99.96
2023-04-17T02:47:33.666Z,99.79
2023-04-17T02:52:37.454Z,98.49
2023-04-17T02:57:39.294Z,97.02
2023-04-17T03:02:41.552Z,97.28
2023-04-17T03:07:43.305Z,96.35
2023-04-17T03:12:45.171Z,96.04
2023-04-17T03:17:47.983Z,96.69
2023-04-17T03:22:51.972Z,96.72
2023-04-17T03:27:53.639Z,96.92
2023-04-17T03:32:58.970Z,97.29
2023-04-17T03:38:04.425Z,98.62
2023-04-17T03:43:07.418Z,97.05
2023-04-17T03:48:09.271Z,95.90
2023-04-17T03:53:12.559Z,95.91
2023-04-17T03:58:14.634Z,97.03
2023-04-17T04:03:16.514Z,95.97
2023-04-17T04:08:18.499Z,94.63
2023-04-17T04:13:24.184Z,95.25
2023-04-17T04:18:30.792Z,95.60
2023-04-17T04:23:33.850Z,95.19
2023-04-17T04:28:36.147Z,95.24
2023-04-17T04:33:38.213Z,94.60
2023-04-17T04:38:40.464Z,95.02
2023-04-17T04:43:51.621Z,93.82
2023-04-17T04:48:53.422Z,94.15
2023-04-17T04:53:55.293Z,94.30
2023-04-17T04:58:58.520Z,93.98
2023-04-17T05:04:01.309Z,93.71
2023-04-17T05:09:04.517Z,92.83
2023-04-17T05:14:09.324Z,92.29
2023-04-17T05:19:14.984Z,92.61
2023-04-17T05:24:43.080Z,92.47
2023-04-17T05:29:44.989Z,92.84
2023-04-17T05:34:47.167Z,93.25
2023-04-17T05:39:50.103Z,92.44
2023-04-17T05:44:52.043Z,92.61
2023-04-17T05:49:57.491Z,92.21
2023-04-17T05:55:02.942Z,91.74
2023-04-17T06:00:13.125Z,91.91
2023-04-17T06:05:24.348Z,92.80
2023-04-17T06:10:29.291Z,93.30
2023-04-17T06:15:31.450Z,92.29
2023-04-17T06:20:33.324Z,94.62
2023-04-17T06:25:38.014Z,94.33
2023-04-17T06:30:39.792Z,94.11
2023-04-17T06:35:42.562Z,93.37
2023-04-17T06:40:53.249Z,91.42
2023-04-17T06:45:55.316Z,92.17
2023-04-17T06:50:56.986Z,93.25
2023-04-17T06:55:58.753Z,93.07
2023-04-17T07:01:00.462Z,92.27
2023-04-17T07:06:02.468Z,93.98
2023-04-17T07:11:04.164Z,94.22
2023-04-17T07:16:06.434Z,95.00
2023-04-17T07:21:08.337Z,96.72
2023-04-17T07:26:11.049Z,96.29
2023-04-17T07:31:12.722Z,96.45
2023-04-17T07:36:14.488Z,96.55
2023-04-17T07:41:16.331Z,96.44
2023-04-17T07:46:18.058Z,97.19
2023-04-17T07:51:19.796Z,97.17
2023-04-17T07:56:21.423Z,96.52
2023-04-17T08:01:23.163Z,97.27
2023-04-17T08:06:25.049Z,97.89
2023-04-17T08:11:26.708Z,97.58
2023-04-17T08:16:28.797Z,97.48
2023-04-17T08:21:31.177Z,97.39
2023-04-17T08:26:33.117Z,96.79
2023-04-17T08:31:39.965Z,95.52
2023-04-17T08:36:43.061Z,95.85
2023-04-17T08:42:11.912Z,95.21
2023-04-17T08:47:18.282Z,95.23
2023-04-17T08:52:19.983Z,95.33
2023-04-17T08:57:23.968Z,95.69
2023-04-17T09:02:27.617Z,95.30
2023-04-17T09:07:30.737Z,94.18
2023-04-17T09:12:32.326Z,93.71
2023-04-17T09:17:38.561Z,92.47
2023-04-17T09:22:41.231Z,91.39
2023-04-17T09:27:42.958Z,91.16
2023-04-17T09:32:44.704Z,90.45
2023-04-17T09:37:59.169Z,90.02
2023-04-17T09:43:03.857Z,89.86
2023-04-17T09:48:11.004Z,88.48
2023-04-17T09:53:13.902Z,87.64
2023-04-17T09:58:16.564Z,86.77
2023-04-17T10:03:18.558Z,87.31
2023-04-17T10:08:20.601Z,85.43
2023-04-17T10:13:27.253Z,84.68
2023-04-17T10:18:28.993Z,84.41
2023-04-17T10:23:33.317Z,83.90
2023-04-17T10:28:52.177Z,83.66
2023-04-17T10:33:54.396Z,80.38
2023-04-17T10:39:13.173Z,77.84
2023-04-17T10:44:15.063Z,77.43
2023-04-17T10:49:16.850Z,77.17
2023-04-17T10:54:18.572Z,78.14
2023-04-17T10:59:22.118Z,74.90
2023-04-17T11:04:27.235Z,75.48
2023-04-17T11:09:29.639Z,72.12
2023-04-17T11:14:32.126Z,70.98
2023-04-17T11:19:33.851Z,72.17
2023-04-17T11:24:37.490Z,68.84
2023-04-17T11:29:39.097Z,69.20
2023-04-17T11:34:41.291Z,68.70
2023-04-17T11:39:43.515Z,67.57
2023-04-17T11:44:45.187Z,68.49
2023-04-17T11:49:47.150Z,63.42
2023-04-17T11:55:00.450Z,65.70
2023-04-17T12:00:12.310Z,65.21
2023-04-17T12:05:15.945Z,63.40
2023-04-17T12:10:18.355Z,64.02
2023-04-17T12:15:19.939Z,62.96
2023-04-17T12:20:21.550Z,62.54
2023-04-17T12:25:24.514Z,61.06
2023-04-17T12:30:29.460Z,60.31
2023-04-17T12:35:33.517Z,61.32
2023-04-17T12:40:35.106Z,60.88
2023-04-17T12:45:45.723Z,59.43
2023-04-17T12:50:47.459Z,59.90
2023-04-17T12:55:49.253Z,57.28
2023-04-17T13:00:51.084Z,58.27
2023-04-17T13:06:03.647Z,58.89
2023-04-17T13:11:28.705Z,57.81
2023-04-17T13:17:01.006Z,56.79
2023-04-17T13:22:41.739Z,54.95
2023-04-17T13:29:00.261Z,56.72
2023-04-17T13:35:23.702Z,54.93
2023-04-17T13:41:15.520Z,56.74
2023-04-17T13:46:24.426Z,55.17
2023-04-17T13:51:27.291Z,52.48
2023-04-17T13:56:29.396Z,51.18
2023-04-17T14:01:31.040Z,50.88
2023-04-17T14:06:37.484Z,50.51
2023-04-17T14:11:39.301Z,50.79
2023-04-17T14:16:41.364Z,53.79
2023-04-17T14:21:43.100Z,54.64
2023-04-17T14:26:44.896Z,54.87
2023-04-17T14:31:46.740Z,56.25
2023-04-17T14:36:48.809Z,54.91
2023-04-17T14:41:50.604Z,54.83
2023-04-17T14:46:52.494Z,55.15
2023-04-17T14:51:55.005Z,55.00
2023-04-17T14:56:57.848Z,55.12
2023-04-17T15:01:59.693Z,55.15
2023-04-17T15:07:01.433Z,55.59
2023-04-17T15:12:03.150Z,53.69
2023-04-17T15:17:07.676Z,55.37
2023-04-17T15:22:09.367Z,54.94
2023-04-17T15:27:11.641Z,55.87
2023-04-17T15:32:13.476Z,57.67
2023-04-17T15:37:15.234Z,56.98
2023-04-17T15:42:16.924Z,57.69
2023-04-17T15:47:18.602Z,58.00
2023-04-17T15:52:20.586Z,57.88
2023-04-17T15:57:23.536Z,57.98
2023-04-17T16:02:26.113Z,58.29
2023-04-17T16:07:27.812Z,58.55
2023-04-17T16:12:29.450Z,59.10
2023-04-17T16:17:31.091Z,58.42
2023-04-17T16:22:32.876Z,57.06
2023-04-17T16:27:34.805Z,57.40
2023-04-17T16:32:37.632Z,57.75
2023-04-17T16:37:39.658Z,58.40
2023-04-17T16:42:41.278Z,59.04
2023-04-17T16:47:42.968Z,59.31
2023-04-17T16:52:44.695Z,59.59
2023-04-17T16:57:47.923Z,60.29
2023-04-17T17:02:49.759Z,59.76
2023-04-17T17:07:51.510Z,60.35
2023-04-17T17:12:53.355Z,60.74
2023-04-17T17:17:55.133Z,61.12
2023-04-17T17:22:56.788Z,62.56
2023-04-17T17:27:58.405Z,63.73
2023-04-17T17:33:00.483Z,63.80
2023-04-17T17:38:02.242Z,65.04
2023-04-17T17:43:03.904Z,65.26
2023-04-17T17:48:06.280Z,64.33
2023-04-17T17:53:07.966Z,63.73
2023-04-17T17:58:09.645Z,64.95
2023-04-17T18:03:11.524Z,64.73
2023-04-17T18:08:14.352Z,65.20
2023-04-17T18:13:16.144Z,66.80
2023-04-17T18:18:17.808Z,66.73
2023-04-17T18:23:19.511Z,67.90
2023-04-17T18:28:21.286Z,66.29
2023-04-17T18:33:23.036Z,64.54
2023-04-17T18:38:25.525Z,65.63
2023-04-17T18:43:28.828Z,64.23
2023-04-17T18:48:30.743Z,63.20
2023-04-17T18:53:32.663Z,64.40
2023-04-17T18:58:34.235Z,65.08
2023-04-17T19:03:39.883Z,64.97
2023-04-17T19:08:41.862Z,65.38
2023-04-17T19:13:45.098Z,65.71
2023-04-17T19:18:46.843Z,66.11
2023-04-17T19:23:49.605Z,66.72
2023-04-17T19:28:51.385Z,67.20
2023-04-17T19:33:56.123Z,67.78
2023-04-17T19:38:59.719Z,68.12
2023-04-17T19:44:01.442Z,69.46
2023-04-17T19:49:03.327Z,70.66
2023-04-17T19:54:05.053Z,69.65
2023-04-17T19:59:12.776Z,70.56
2023-04-17T20:04:16.922Z,70.21
2023-04-17T20:09:19.361Z,71.02
2023-04-17T20:14:21.350Z,71.44
2023-04-17T20:19:23.874Z,72.06
2023-04-17T20:24:25.542Z,72.07
2023-04-17T20:29:27.335Z,72.42
2023-04-17T20:34:29.064Z,72.36
2023-04-17T20:39:30.828Z,71.74
2023-04-17T20:44:32.845Z,72.63
2023-04-17T20:49:34.576Z,73.09
2023-04-17T20:54:38.184Z,72.41
2023-04-17T20:59:39.850Z,72.77
2023-04-17T21:04:57.738Z,70.95
2023-04-17T21:09:59.487Z,69.83
2023-04-17T21:15:01.210Z,69.51
2023-04-17T21:20:09.568Z,68.84
2023-04-17T21:25:11.322Z,68.00
2023-04-17T21:30:13.170Z,68.15
2023-04-17T21:35:14.849Z,68.92
2023-04-17T21:40:17.168Z,69.41
2023-04-17T21:45:19.545Z,69.19
2023-04-17T21:50:21.170Z,69.76
2023-04-17T21:55:22.854Z,70.90
2023-04-17T22:00:24.777Z,71.04
2023-04-17T22:05:26.806Z,71.51
2023-04-17T22:10:29.268Z,71.91
2023-04-17T22:15:30.975Z,72.73
2023-04-17T22:20:32.739Z,72.84
2023-04-17T22:25:34.512Z,72.92
2023-04-17T22:30:36.160Z,73.00
2023-04-17T22:35:37.929Z,73.45
2023-04-17T22:40:40.650Z,73.58
2023-04-17T22:45:42.520Z,73.78
2023-04-17T22:50:45.563Z,73.67
2023-04-17T22:55:47.190Z,73.63
2023-04-17T23:00:49.083Z,73.69
2023-04-17T23:05:53.432Z,74.01
2023-04-17T23:10:57.741Z,73.34
2023-04-17T23:15:59.454Z,73.45
2023-04-17T23:21:01.109Z,72.59
2023-04-17T23:26:02.798Z,72.67
2023-04-17T23:31:07.941Z,72.99
2023-04-17T23:36:09.664Z,72.24
2023-04-17T23:41:11.690Z,72.36
2023-04-17T23:46:13.777Z,72.74
2023-04-17T23:51:15.506Z,72.20
2023-04-17T23:56:18.135Z,72.32
